Time;durP1;ratioP1;P1;durP2;ratioP2;P2;SDS_P1;SDS_P2;PMS_P1;PMS_P2;Temp;Humidity;BMP_temperature;BMP_pressure;BME280_temperature;BME280_humidity;BME280_pressure;Samples;Min_cycle;Max_cycle;Signal;HPM_P1;HPM_P2
2023/04/03 00:01:35;;;;;;;;;;;18.80;90.00;;;;;;5135865;27;19907;-60
2023/04/03 00:04:00;;;;;;;;;;;18.80;89.90;;;;;;5135840;27;20280;-61
2023/04/03 00:06:26;;;;;;;;;;;18.80;90.00;;;;;;5135839;27;20002;-61
2023/04/03 00:08:51;;;;;;;;;;;18.80;90.00;;;;;;5135464;27;19907;-59
2023/04/03 00:11:17;;;;;;;;;;;18.80;90.00;;;;;;5135513;27;20381;-59
2023/04/03 00:13:43;;;;;;;;;;;18.80;90.00;;;;;;5117335;27;19908;-59
2023/04/03 00:16:10;;;;;;;;;;;18.80;89.90;;;;;;5135412;27;19907;-58
2023/04/03 00:18:35;;;;;;;;;;;18.80;90.20;;;;;;5135659;27;19908;-58
2023/04/03 00:21:01;;;;;;;;;;;18.70;89.80;;;;;;5135336;27;20281;-59
2023/04/03 00:23:27;;;;;;;;;;;18.80;90.00;;;;;;5135205;27;19920;-59
2023/04/03 00:25:52;;;;;;;;;;;18.80;90.20;;;;;;5135578;27;20327;-59
2023/04/03 00:28:18;;;;;;;;;;;18.80;90.20;;;;;;5135462;27;19907;-59
2023/04/03 00:30:43;;;;;;;;;;;18.70;90.20;;;;;;5135463;27;19907;-59
2023/04/03 00:33:11;;;;;;;;;;;18.80;90.20;;;;;;5135411;27;19907;-59
2023/04/03 00:35:37;;;;;;;;;;;18.80;90.20;;;;;;5135084;27;19946;-59
2023/04/03 00:38:03;;;;;;;;;;;18.80;90.20;;;;;;5135035;27;20346;-56
2023/04/03 00:40:32;;;;;;;;;;;18.80;90.20;;;;;;5135352;27;19971;-59
2023/04/03 00:42:59;;;;;;;;;;;18.80;90.20;;;;;;5135531;27;19923;-59
2023/04/03 00:45:26;;;;;;;;;;;18.80;90.20;;;;;;5142410;27;19907;-60
2023/04/03 00:47:52;;;;;;;;;;;18.80;90.20;;;;;;5155945;27;19930;-59
2023/04/03 00:50:18;;;;;;;;;;;18.80;90.10;;;;;;5155878;27;20362;-59
2023/04/03 00:52:46;;;;;;;;;;;18.80;90.20;;;;;;5155556;27;19994;-59
2023/04/03 00:55:12;;;;;;;;;;;18.80;90.20;;;;;;5155752;27;20369;-59
2023/04/03 00:57:38;;;;;;;;;;;18.80;90.10;;;;;;5155567;27;20334;-58
2023/04/03 01:00:09;;;;;;;;;;;18.80;89.60;;;;;;5158734;27;19942;-57
2023/04/03 01:02:35;;;;;;;;;;;18.80;90.00;;;;;;5159949;27;19915;-59
2023/04/03 01:05:00;;;;;;;;;;;18.80;89.70;;;;;;5159806;27;20259;-59
2023/04/03 01:07:28;;;;;;;;;;;18.80;90.00;;;;;;5159759;27;19911;-62
2023/04/03 01:09:56;;;;;;;;;;;18.80;90.00;;;;;;5160029;27;19907;-61
2023/04/03 01:12:23;;;;;;;;;;;18.80;90.10;;;;;;5159899;27;19962;-61
2023/04/03 01:14:50;;;;;;;;;;;18.80;90.00;;;;;;5159958;27;19915;-61
2023/04/03 01:17:29;;;;;;;;;;;18.80;90.20;;;;;;5159885;27;19967;-59
2023/04/03 01:20:01;;;;;;;;;;;18.80;90.10;;;;;;5159769;27;19914;-59
2023/04/03 01:22:30;;;;;;;;;;;18.80;90.00;;;;;;5159383;27;19962;-59
2023/04/03 01:24:56;;;;;;;;;;;18.80;90.20;;;;;;5159732;27;19959;-59
2023/04/03 01:27:21;;;;;;;;;;;18.80;90.20;;;;;;5159697;27;20002;-61
2023/04/03 01:29:47;;;;;;;;;;;18.80;90.20;;;;;;5159359;27;19915;-61
2023/04/03 01:32:12;;;;;;;;;;;18.80;90.20;;;;;;5159304;27;20396;-62
2023/04/03 01:34:38;;;;;;;;;;;18.80;90.10;;;;;;5159598;27;20334;-61
2023/04/03 01:37:03;;;;;;;;;;;18.80;90.20;;;;;;5159467;27;19907;-62
2023/04/03 01:39:29;;;;;;;;;;;18.80;90.10;;;;;;5159426;27;20365;-62
2023/04/03 01:41:54;;;;;;;;;;;18.80;90.20;;;;;;5159436;27;19964;-61
2023/04/03 01:44:20;;;;;;;;;;;18.80;90.20;;;;;;5159312;27;19907;-60
2023/04/03 01:46:46;;;;;;;;;;;18.80;90.00;;;;;;5121851;27;19907;-60
2023/04/03 01:49:11;;;;;;;;;;;18.70;90.10;;;;;;5138531;27;19907;-59
2023/04/03 01:51:37;;;;;;;;;;;18.70;90.10;;;;;;5137973;27;19919;-60
2023/04/03 01:54:02;;;;;;;;;;;18.70;90.20;;;;;;5138476;27;19914;-60
2023/04/03 01:56:28;;;;;;;;;;;18.70;90.20;;;;;;5138067;27;19908;-60
2023/04/03 01:58:53;;;;;;;;;;;18.80;90.20;;;;;;5138322;27;20377;-60
2023/04/03 02:01:19;;;;;;;;;;;18.70;90.00;;;;;;5138245;27;19907;-60
2023/04/03 02:03:44;;;;;;;;;;;18.70;90.10;;;;;;5138211;27;20247;-60
2023/04/03 02:06:10;;;;;;;;;;;18.70;90.20;;;;;;5138530;27;20269;-60
2023/04/03 02:08:35;;;;;;;;;;;18.70;90.00;;;;;;5138197;27;19914;-58
2023/04/03 02:11:01;;;;;;;;;;;18.80;90.10;;;;;;5136973;27;20381;-60
2023/04/03 02:13:26;;;;;;;;;;;18.80;89.80;;;;;;5137749;27;19917;-60
2023/04/03 02:15:52;;;;;;;;;;;18.80;90.00;;;;;;5138014;27;19907;-60
2023/04/03 02:18:17;;;;;;;;;;;18.80;90.20;;;;;;5137966;27;20358;-59
2023/04/03 02:20:43;;;;;;;;;;;18.80;90.10;;;;;;5138214;27;20012;-60
2023/04/03 02:23:09;;;;;;;;;;;18.80;90.10;;;;;;5137734;27;19916;-59
2023/04/03 02:25:34;;;;;;;;;;;18.80;90.10;;;;;;5137801;27;19907;-60
2023/04/03 02:28:00;;;;;;;;;;;18.80;90.10;;;;;;5137799;27;20018;-60
2023/04/03 02:30:26;;;;;;;;;;;18.80;90.10;;;;;;5137497;27;19914;-60
2023/04/03 02:32:51;;;;;;;;;;;18.80;90.10;;;;;;5137359;27;20363;-60
2023/04/03 02:35:17;;;;;;;;;;;18.80;90.00;;;;;;5137626;27;19911;-59
2023/04/03 02:37:42;;;;;;;;;;;18.80;89.90;;;;;;5137250;27;19907;-61
2023/04/03 02:40:08;;;;;;;;;;;18.80;89.70;;;;;;5137292;27;20350;-57
2023/04/03 02:42:33;;;;;;;;;;;18.80;89.80;;;;;;5137112;27;19964;-58
2023/04/03 02:45:00;;;;;;;;;;;18.80;89.90;;;;;;5140827;27;19907;-58
2023/04/03 02:47:26;;;;;;;;;;;18.80;89.90;;;;;;5158087;27;20341;-58
2023/04/03 02:49:52;;;;;;;;;;;18.80;90.10;;;;;;5158091;27;19907;-58
2023/04/03 02:52:18;;;;;;;;;;;18.80;90.00;;;;;;5158089;27;19911;-58
2023/04/03 02:54:43;;;;;;;;;;;18.80;89.80;;;;;;5157691;27;20354;-58
2023/04/03 02:57:09;;;;;;;;;;;18.80;90.00;;;;;;5157959;27;19907;-57
2023/04/03 02:59:35;;;;;;;;;;;18.80;90.10;;;;;;5157920;27;19914;-59
2023/04/03 03:02:01;;;;;;;;;;;18.80;89.80;;;;;;5139254;27;20327;-59
2023/04/03 03:04:26;;;;;;;;;;;18.80;90.00;;;;;;5157823;27;19915;-59
2023/04/03 03:06:52;;;;;;;;;;;18.80;90.00;;;;;;5157454;27;19914;-58
2023/04/03 03:09:17;;;;;;;;;;;18.80;90.10;;;;;;5157622;27;19915;-58
2023/04/03 03:11:43;;;;;;;;;;;18.80;90.10;;;;;;5157381;27;19907;-58
2023/04/03 03:14:09;;;;;;;;;;;18.80;90.10;;;;;;5157533;27;19976;-58
2023/04/03 03:16:34;;;;;;;;;;;18.80;90.00;;;;;;5157688;27;19914;-61
2023/04/03 03:19:00;;;;;;;;;;;18.80;90.10;;;;;;5157192;27;19997;-60
2023/04/03 03:21:25;;;;;;;;;;;18.80;90.00;;;;;;5138374;27;19907;-61
2023/04/03 03:23:51;;;;;;;;;;;18.80;90.10;;;;;;5157278;27;19916;-61
2023/04/03 03:26:16;;;;;;;;;;;18.80;90.00;;;;;;5157046;27;19911;-59
2023/04/03 03:28:42;;;;;;;;;;;18.80;90.10;;;;;;5156918;27;19914;-58
2023/04/03 03:31:08;;;;;;;;;;;18.80;90.00;;;;;;5157211;27;19971;-57
2023/04/03 03:33:34;;;;;;;;;;;18.80;89.90;;;;;;5157228;27;19914;-58
2023/04/03 03:35:59;;;;;;;;;;;18.80;89.90;;;;;;5157025;27;19908;-61
2023/04/03 03:38:25;;;;;;;;;;;18.80;89.90;;;;;;5156765;27;19914;-61
2023/04/03 03:40:50;;;;;;;;;;;18.80;89.70;;;;;;5157212;27;19952;-61
2023/04/03 03:43:16;;;;;;;;;;;18.80;90.00;;;;;;5157025;27;19927;-60
2023/04/03 03:45:42;;;;;;;;;;;18.80;89.50;;;;;;5146804;27;19911;-59
2023/04/03 03:48:08;;;;;;;;;;;18.80;90.00;;;;;;5135867;27;20243;-58
2023/04/03 03:50:33;;;;;;;;;;;18.80;90.00;;;;;;5135764;27;19908;-59
2023/04/03 03:52:59;;;;;;;;;;;18.70;90.10;;;;;;5117335;27;19907;-59
2023/04/03 03:55:24;;;;;;;;;;;18.80;90.10;;;;;;5135889;27;19908;-59
2023/04/03 03:57:50;;;;;;;;;;;18.80;90.00;;;;;;5135963;27;20002;-59
2023/04/03 04:00:16;;;;;;;;;;;18.70;89.70;;;;;;5135681;27;19957;-59
2023/04/03 04:02:41;;;;;;;;;;;18.70;89.90;;;;;;5135837;27;19922;-59
2023/04/03 04:05:07;;;;;;;;;;;18.70;90.00;;;;;;5135807;27;19979;-59
2023/04/03 04:07:32;;;;;;;;;;;18.70;90.10;;;;;;5135405;27;19908;-59
2023/04/03 04:09:58;;;;;;;;;;;18.70;90.10;;;;;;5135493;27;19907;-59
2023/04/03 04:12:23;;;;;;;;;;;18.70;90.00;;;;;;5135678;27;19911;-59
2023/04/03 04:14:49;;;;;;;;;;;18.70;90.00;;;;;;5135556;27;19912;-59
2023/04/03 04:17:14;;;;;;;;;;;18.70;89.90;;;;;;5135552;27;19907;-59
2023/04/03 04:19:40;;;;;;;;;;;18.70;89.80;;;;;;5135500;27;19907;-58
2023/04/03 04:22:05;;;;;;;;;;;18.70;89.90;;;;;;5135415;27;19922;-59
2023/04/03 04:24:31;;;;;;;;;;;18.70;90.00;;;;;;5135467;27;19914;-59
2023/04/03 04:26:56;;;;;;;;;;;18.70;89.30;;;;;;5135193;27;19998;-60
2023/04/03 04:29:22;;;;;;;;;;;18.70;89.50;;;;;;5117057;27;19907;-59
2023/04/03 04:31:47;;;;;;;;;;;18.70;90.00;;;;;;5135332;27;19912;-59
2023/04/03 04:34:12;;;;;;;;;;;18.70;90.10;;;;;;5134392;27;20392;-59
2023/04/03 04:36:38;;;;;;;;;;;18.70;90.00;;;;;;5134925;27;19907;-60
2023/04/03 04:39:05;;;;;;;;;;;18.70;90.00;;;;;;5135276;27;19918;-60
2023/04/03 04:41:30;;;;;;;;;;;18.70;89.70;;;;;;5134495;27;19947;-61
2023/04/03 04:43:56;;;;;;;;;;;18.70;89.80;;;;;;5134786;27;20027;-60
2023/04/03 04:46:21;;;;;;;;;;;18.70;90.00;;;;;;5150155;27;19914;-61
2023/04/03 04:48:48;;;;;;;;;;;18.70;90.10;;;;;;5155851;27;19911;-60
2023/04/03 04:51:14;;;;;;;;;;;18.70;90.10;;;;;;5137650;27;19934;-58
2023/04/03 04:53:40;;;;;;;;;;;18.70;90.10;;;;;;5133026;27;19911;-58
2023/04/03 04:56:05;;;;;;;;;;;18.70;90.10;;;;;;5132851;28;19908;-59
2023/04/03 04:58:31;;;;;;;;;;;18.70;90.10;;;;;;5132583;28;20346;-56
2023/04/03 05:01:03;;;;;;;;;;;18.80;90.10;;;;;;5132939;28;20002;-58
2023/04/03 05:03:29;;;;;;;;;;;18.70;90.00;;;;;;5132790;28;20186;-58
2023/04/03 05:05:54;;;;;;;;;;;18.80;90.10;;;;;;5132766;28;20006;-57
2023/04/03 05:08:20;;;;;;;;;;;18.80;90.10;;;;;;5133973;28;19909;-59
2023/04/03 05:10:46;;;;;;;;;;;18.80;90.10;;;;;;5134524;28;19908;-59
2023/04/03 05:13:12;;;;;;;;;;;18.80;90.10;;;;;;5134579;28;19915;-59
2023/04/03 05:15:37;;;;;;;;;;;18.70;90.00;;;;;;5133243;28;19958;-61
2023/04/03 05:18:04;;;;;;;;;;;18.80;90.00;;;;;;5125604;28;19922;-61
2023/04/03 05:20:30;;;;;;;;;;;18.80;90.10;;;;;;5134470;28;20488;-60
2023/04/03 05:22:56;;;;;;;;;;;18.80;90.10;;;;;;5135799;27;19972;-60
2023/04/03 05:25:21;;;;;;;;;;;18.80;90.10;;;;;;5152228;27;20281;-60
2023/04/03 05:27:46;;;;;;;;;;;18.80;90.10;;;;;;5128908;28;19962;-60
2023/04/03 05:30:12;;;;;;;;;;;18.80;90.10;;;;;;5132930;28;20384;-60
2023/04/03 05:32:38;;;;;;;;;;;18.80;90.10;;;;;;5132682;28;19956;-61
2023/04/03 05:35:04;;;;;;;;;;;18.80;90.10;;;;;;5134153;28;19914;-48
2023/04/03 05:37:29;;;;;;;;;;;18.80;88.20;;;;;;5133300;28;19914;-50
2023/04/03 05:39:55;;;;;;;;;;;18.80;88.90;;;;;;5132538;28;20313;-50
2023/04/03 05:42:20;;;;;;;;;;;18.90;88.70;;;;;;5142208;27;19920;-51
2023/04/03 05:44:47;;;;;;;;;;;18.90;88.10;;;;;;5132922;27;19911;-49
2023/04/03 05:47:12;;;;;;;;;;;18.90;88.40;;;;;;5138259;27;19911;-49
2023/04/03 05:49:40;;;;;;;;;;;18.90;88.70;;;;;;5134656;27;19913;-57
2023/04/03 05:52:09;;;;;;;;;;;18.90;88.80;;;;;;5135300;27;19922;-65
2023/04/03 05:54:34;;;;;;;;;;;18.80;89.30;;;;;;5153783;27;20254;-67
2023/04/03 05:57:00;;;;;;;;;;;18.80;89.50;;;;;;5138658;27;19907;-67
2023/04/03 05:59:26;;;;;;;;;;;18.90;89.60;;;;;;5137739;27;20277;-69
2023/04/03 06:01:52;;;;;;;;;;;18.90;89.70;;;;;;5138039;27;20007;-67
2023/04/03 06:04:18;;;;;;;;;;;18.90;89.90;;;;;;5138175;27;19916;-66
2023/04/03 06:06:51;;;;;;;;;;;18.90;90.00;;;;;;5137660;27;20346;-67
2023/04/03 06:09:17;;;;;;;;;;;18.90;89.60;;;;;;5135333;27;19918;-66
2023/04/03 06:11:43;;;;;;;;;;;18.90;89.70;;;;;;5138240;27;19915;-66
2023/04/03 06:14:09;;;;;;;;;;;18.90;89.40;;;;;;5136257;27;20254;-66
2023/04/03 06:16:34;;;;;;;;;;;18.90;89.40;;;;;;5116906;27;19933;-65
2023/04/03 06:19:00;;;;;;;;;;;18.90;89.80;;;;;;5137705;27;19918;-65
2023/04/03 06:21:26;;;;;;;;;;;18.90;89.60;;;;;;5136972;27;19911;-65
2023/04/03 06:23:51;;;;;;;;;;;18.90;89.60;;;;;;5137755;27;19919;-64
2023/04/03 06:26:17;;;;;;;;;;;18.90;89.20;;;;;;5136621;27;19911;-67
2023/04/03 06:28:42;;;;;;;;;;;18.90;89.30;;;;;;5136530;27;19949;-64
2023/04/03 06:31:08;;;;;;;;;;;18.90;89.40;;;;;;5136583;27;19912;-65
2023/04/03 06:33:34;;;;;;;;;;;18.90;89.90;;;;;;5137616;27;20338;-63
2023/04/03 06:35:59;;;;;;;;;;;18.90;89.70;;;;;;5136534;27;19930;-64
2023/04/03 06:38:25;;;;;;;;;;;18.90;89.70;;;;;;5119036;27;19918;-64
2023/04/03 06:40:51;;;;;;;;;;;18.90;89.60;;;;;;5135933;27;19937;-64
2023/04/03 06:43:17;;;;;;;;;;;18.90;89.80;;;;;;5118303;27;19923;-60
2023/04/03 06:45:42;;;;;;;;;;;18.90;90.00;;;;;;5142293;27;19919;-62
2023/04/03 06:48:08;;;;;;;;;;;18.90;90.00;;;;;;5136072;27;19912;-62
2023/04/03 06:50:33;;;;;;;;;;;18.90;90.00;;;;;;5117586;27;19917;-61
2023/04/03 06:52:59;;;;;;;;;;;18.90;90.00;;;;;;5136917;27;19933;-62
2023/04/03 06:55:24;;;;;;;;;;;18.80;90.30;;;;;;5135712;27;20335;-62
2023/04/03 06:57:50;;;;;;;;;;;18.90;90.10;;;;;;5135581;27;19911;-62
2023/04/03 07:00:16;;;;;;;;;;;18.90;90.10;;;;;;5134914;27;19998;-62
2023/04/03 07:02:41;;;;;;;;;;;18.90;90.10;;;;;;5136940;27;19915;-62
2023/04/03 07:05:07;;;;;;;;;;;18.90;90.10;;;;;;5136107;27;20277;-63
2023/04/03 07:07:34;;;;;;;;;;;18.90;90.10;;;;;;5135734;27;20350;-59
2023/04/03 07:09:59;;;;;;;;;;;18.90;89.90;;;;;;5136775;27;19907;-62
2023/04/03 07:12:25;;;;;;;;;;;18.90;90.00;;;;;;5135822;27;19998;-60
2023/04/03 07:14:50;;;;;;;;;;;18.90;89.80;;;;;;5144150;27;20055;-62
2023/04/03 07:17:16;;;;;;;;;;;18.90;89.70;;;;;;5152672;27;19912;-62
2023/04/03 07:19:41;;;;;;;;;;;18.90;89.70;;;;;;5151258;27;19914;-61
2023/04/03 07:22:07;;;;;;;;;;;18.90;89.50;;;;;;5147914;27;19980;-62
2023/04/03 07:24:33;;;;;;;;;;;18.90;89.80;;;;;;5135586;27;19911;-62
2023/04/03 07:26:58;;;;;;;;;;;18.90;89.90;;;;;;5134283;27;19912;-63
2023/04/03 07:29:24;;;;;;;;;;;18.90;89.90;;;;;;5136515;27;19907;-63
2023/04/03 07:31:49;;;;;;;;;;;18.90;90.00;;;;;;5135360;27;19911;-63
2023/04/03 07:34:15;;;;;;;;;;;18.90;89.60;;;;;;5136637;27;19960;-63
2023/04/03 07:36:41;;;;;;;;;;;18.90;89.70;;;;;;5134792;27;19908;-67
2023/04/03 07:39:07;;;;;;;;;;;18.90;89.70;;;;;;5134774;27;19918;-65
2023/04/03 07:41:33;;;;;;;;;;;18.90;88.80;;;;;;5133114;27;19919;-64
2023/04/03 07:43:59;;;;;;;;;;;18.90;88.60;;;;;;5134330;27;19942;-62
2023/04/03 07:46:24;;;;;;;;;;;18.90;88.80;;;;;;5134270;27;19950;-62
2023/04/03 07:48:50;;;;;;;;;;;18.90;89.20;;;;;;5134452;27;19933;-64
2023/04/03 07:51:16;;;;;;;;;;;18.90;88.80;;;;;;5134767;27;19911;-64
2023/04/03 07:53:41;;;;;;;;;;;18.90;88.80;;;;;;5134737;27;19918;-64
2023/04/03 07:56:07;;;;;;;;;;;18.80;88.70;;;;;;5135551;27;19916;-63
2023/04/03 07:58:33;;;;;;;;;;;18.90;88.80;;;;;;5134828;27;19942;-63
2023/04/03 08:00:59;;;;;;;;;;;18.90;88.80;;;;;;5135155;27;19996;-65
2023/04/03 08:03:25;;;;;;;;;;;18.80;88.70;;;;;;5134792;27;19922;-64
2023/04/03 08:05:50;;;;;;;;;;;18.90;88.80;;;;;;5134566;27;19907;-65
2023/04/03 08:08:17;;;;;;;;;;;18.90;89.20;;;;;;5116045;28;20016;-60
2023/04/03 08:10:43;;;;;;;;;;;18.80;89.40;;;;;;5138795;27;19907;-62
2023/04/03 08:13:09;;;;;;;;;;;18.80;89.50;;;;;;5156381;27;19907;-62
2023/04/03 08:15:35;;;;;;;;;;;18.90;89.70;;;;;;5134924;27;19911;-67
2023/04/03 08:18:01;;;;;;;;;;;18.90;89.50;;;;;;5133169;27;20002;-66
2023/04/03 08:20:27;;;;;;;;;;;18.90;89.60;;;;;;5133096;27;19915;-64
2023/04/03 08:22:53;;;;;;;;;;;18.90;89.50;;;;;;5134185;27;19915;-63
2023/04/03 08:25:18;;;;;;;;;;;18.90;89.40;;;;;;5132871;27;19919;-64
2023/04/03 08:27:44;;;;;;;;;;;18.90;89.40;;;;;;5133547;27;20038;-63
2023/04/03 08:30:10;;;;;;;;;;;18.90;89.00;;;;;;5133393;27;19918;-67
2023/04/03 08:32:36;;;;;;;;;;;18.90;89.10;;;;;;5115763;27;19911;-64
2023/04/03 08:35:02;;;;;;;;;;;18.90;89.00;;;;;;5114889;27;20368;-64
2023/04/03 08:37:27;;;;;;;;;;;18.90;88.60;;;;;;5135272;27;20357;-65
2023/04/03 08:39:53;;;;;;;;;;;18.90;88.70;;;;;;5133719;27;19918;-68
2023/04/03 08:42:37;;;;;;;;;;;18.90;88.50;;;;;;5135079;27;19920;-65
2023/04/03 08:45:10;;;;;;;;;;;18.90;88.90;;;;;;5137532;27;19918;-66
2023/04/03 08:47:42;;;;;;;;;;;18.90;89.00;;;;;;5135404;27;20331;-66
2023/04/03 08:50:16;;;;;;;;;;;18.90;88.80;;;;;;5132241;27;19920;-66
2023/04/03 08:52:45;;;;;;;;;;;18.90;88.70;;;;;;5134135;27;19998;-68
2023/04/03 08:55:13;;;;;;;;;;;18.90;88.60;;;;;;5134273;27;20389;-66
2023/04/03 08:57:41;;;;;;;;;;;18.90;88.70;;;;;;5131422;27;20267;-64
2023/04/03 09:00:13;;;;;;;;;;;18.90;88.80;;;;;;5132219;28;19964;-63
2023/04/03 09:02:44;;;;;;;;;;;18.90;87.50;;;;;;5132907;28;19926;-63
2023/04/03 09:05:14;;;;;;;;;;;18.90;87.90;;;;;;5134980;28;19933;-62
2023/04/03 09:07:43;;;;;;;;;;;18.90;88.20;;;;;;5133777;28;19964;-63
2023/04/03 09:10:11;;;;;;;;;;;18.90;88.20;;;;;;5133410;28;19958;-64
2023/04/03 09:12:39;;;;;;;;;;;18.80;88.50;;;;;;5133369;28;19972;-64
2023/04/03 09:15:08;;;;;;;;;;;18.90;88.50;;;;;;5134800;28;19908;-66
2023/04/03 09:17:52;;;;;;;;;;;18.90;88.50;;;;;;5133460;28;19956;-65
2023/04/03 09:20:18;;;;;;;;;;;18.90;89.00;;;;;;5133652;27;20019;-63
2023/04/03 09:22:44;;;;;;;;;;;18.90;88.40;;;;;;5138787;27;20335;-63
2023/04/03 09:25:23;;;;;;;;;;;18.90;88.30;;;;;;5138134;27;19911;-64
2023/04/03 09:27:48;;;;;;;;;;;18.90;88.50;;;;;;5138873;27;19967;-63
2023/04/03 09:30:15;;;;;;;;;;;18.90;88.40;;;;;;5136648;27;19936;-63
2023/04/03 09:32:42;;;;;;;;;;;18.90;88.80;;;;;;5137316;27;20400;-64
2023/04/03 09:35:14;;;;;;;;;;;18.90;88.40;;;;;;5138654;27;19964;-64
2023/04/03 09:37:41;;;;;;;;;;;18.90;88.60;;;;;;5137459;27;20361;-65
2023/04/03 09:40:27;;;;;;;;;;;18.90;88.40;;;;;;5138190;27;20431;-65
2023/04/03 09:42:54;;;;;;;;;;;18.90;88.50;;;;;;5101900;27;19920;-66
2023/04/03 09:45:24;;;;;;;;;;;18.90;88.00;;;;;;5144872;27;19936;-65
2023/04/03 09:48:03;;;;;;;;;;;18.90;88.40;;;;;;5141435;27;19912;-64
2023/04/03 09:50:29;;;;;;;;;;;18.90;88.90;;;;;;5135440;27;19918;-65
2023/04/03 09:52:55;;;;;;;;;;;18.90;89.30;;;;;;5137878;27;19907;-65
2023/04/03 09:55:29;;;;;;;;;;;18.90;89.10;;;;;;5135598;27;20277;-66
2023/04/03 09:58:02;;;;;;;;;;;18.90;88.60;;;;;;5138150;27;19908;-65
2023/04/03 10:00:32;;;;;;;;;;;18.90;88.50;;;;;;5135089;27;19979;-69
2023/04/03 10:02:58;;;;;;;;;;;18.90;88.60;;;;;;5136240;27;20346;-64
2023/04/03 10:05:35;;;;;;;;;;;18.90;88.70;;;;;;5135520;27;19923;-65
2023/04/03 10:08:15;;;;;;;;;;;18.90;89.80;;;;;;5136577;27;19911;-65
2023/04/03 10:10:45;;;;;;;;;;;18.90;89.40;;;;;;5117292;28;19908;-65
2023/04/03 10:13:11;;;;;;;;;;;18.90;89.20;;;;;;5133026;27;19911;-64
2023/04/03 10:15:41;;;;;;;;;;;18.90;89.00;;;;;;5136732;27;20369;-66
2023/04/03 10:18:16;;;;;;;;;;;18.90;89.00;;;;;;5136194;27;19937;-66
2023/04/03 10:20:49;;;;;;;;;;;18.90;88.60;;;;;;5136653;27;19914;-64
2023/04/03 10:23:21;;;;;;;;;;;18.90;88.50;;;;;;5136502;27;19923;-65
2023/04/03 10:25:47;;;;;;;;;;;18.90;88.30;;;;;;5137674;27;20369;-64
2023/04/03 10:28:23;;;;;;;;;;;18.90;88.50;;;;;;5116393;27;19955;-68
2023/04/03 10:30:48;;;;;;;;;;;18.90;88.50;;;;;;5116779;28;19934;-65
2023/04/03 10:33:13;;;;;;;;;;;18.90;88.30;;;;;;5125977;27;19911;-66
2023/04/03 10:35:43;;;;;;;;;;;18.90;88.40;;;;;;5137442;27;19908;-68
2023/04/03 10:38:17;;;;;;;;;;;18.90;88.00;;;;;;5136419;27;19957;-68
2023/04/03 10:40:52;;;;;;;;;;;19.00;87.80;;;;;;5135179;27;19912;-64
2023/04/03 10:43:47;;;;;;;;;;;18.90;87.70;;;;;;5131070;27;19923;-66
2023/04/03 10:46:16;;;;;;;;;;;18.90;87.90;;;;;;5111961;27;19956;-64
2023/04/03 10:48:54;;;;;;;;;;;19.00;88.10;;;;;;5136257;27;19914;-67
2023/04/03 10:51:26;;;;;;;;;;;18.90;87.20;;;;;;5135116;27;19911;-63
2023/04/03 10:54:06;;;;;;;;;;;18.90;87.00;;;;;;5136511;27;19971;-65
2023/04/03 10:56:37;;;;;;;;;;;19.00;86.90;;;;;;5133308;27;19912;-67
2023/04/03 10:59:03;;;;;;;;;;;18.90;87.50;;;;;;5134404;27;19918;-67
2023/04/03 11:01:31;;;;;;;;;;;18.90;87.70;;;;;;5135784;27;20002;-64
2023/04/03 11:03:58;;;;;;;;;;;18.90;87.90;;;;;;5135425;27;19980;-64
2023/04/03 11:06:26;;;;;;;;;;;18.90;87.80;;;;;;5133971;27;19911;-66
2023/04/03 11:08:56;;;;;;;;;;;18.90;88.20;;;;;;5135752;27;19936;-65
2023/04/03 11:11:25;;;;;;;;;;;18.90;87.80;;;;;;5134567;27;19956;-66
2023/04/03 11:14:00;;;;;;;;;;;18.90;88.10;;;;;;5136512;27;19907;-65
2023/04/03 11:16:30;;;;;;;;;;;18.90;88.10;;;;;;5135479;27;19915;-61
2023/04/03 11:19:10;;;;;;;;;;;18.90;88.70;;;;;;5117603;27;20323;-61
2023/04/03 11:21:47;;;;;;;;;;;18.90;88.10;;;;;;5135456;27;19955;-61
2023/04/03 11:24:17;;;;;;;;;;;18.90;88.50;;;;;;5134353;27;19945;-61
2023/04/03 11:26:42;;;;;;;;;;;18.90;88.00;;;;;;5135344;27;19918;-61
2023/04/03 11:29:12;;;;;;;;;;;18.90;88.10;;;;;;5135091;27;20002;-61
2023/04/03 11:31:46;;;;;;;;;;;18.90;87.80;;;;;;5132319;27;19971;-61
2023/04/03 11:34:17;;;;;;;;;;;18.90;88.10;;;;;;5136020;27;19911;-60
2023/04/03 11:36:45;;;;;;;;;;;18.90;87.70;;;;;;5134260;27;19934;-61
2023/04/03 11:39:34;;;;;;;;;;;18.90;87.90;;;;;;5135223;27;20361;-61
2023/04/03 11:42:18;;;;;;;;;;;18.90;87.70;;;;;;5122052;27;20371;-60
2023/04/03 11:44:43;;;;;;;;;;;18.90;87.30;;;;;;5137235;27;20286;-64
2023/04/03 11:47:11;;;;;;;;;;;18.90;87.70;;;;;;5138163;27;19958;-64
2023/04/03 11:50:09;;;;;;;;;;;18.90;88.50;;;;;;5130050;27;19910;-65
2023/04/03 11:52:38;;;;;;;;;;;18.90;88.00;;;;;;5112513;27;20338;-66
2023/04/03 11:55:21;;;;;;;;;;;18.90;87.60;;;;;;5156528;27;19932;-65
2023/04/03 11:57:59;;;;;;;;;;;18.80;87.60;;;;;;5157182;27;19903;-63
2023/04/03 12:00:43;;;;;;;;;;;18.90;87.70;;;;;;5137905;27;20392;-66
2023/04/03 12:03:26;;;;;;;;;;;18.80;88.30;;;;;;5156294;27;20322;-64
2023/04/03 12:05:53;;;;;;;;;;;18.80;88.00;;;;;;5131931;27;19911;-65
2023/04/03 12:08:26;;;;;;;;;;;18.80;87.90;;;;;;5133410;27;19914;-63
2023/04/03 12:11:13;;;;;;;;;;;18.80;88.00;;;;;;5134723;27;19907;-64
2023/04/03 12:14:02;;;;;;;;;;;18.80;88.20;;;;;;5117168;27;19907;-68
2023/04/03 12:16:28;;;;;;;;;;;18.80;87.80;;;;;;5114326;27;19958;-64
2023/04/03 12:18:53;;;;;;;;;;;18.80;87.80;;;;;;5116287;27;20336;-67
2023/04/03 12:21:22;;;;;;;;;;;18.80;88.60;;;;;;5132917;27;19919;-66
2023/04/03 12:24:06;;;;;;;;;;;18.80;88.50;;;;;;5134921;27;19954;-64
2023/04/03 12:26:51;;;;;;;;;;;18.80;88.60;;;;;;5134185;27;20333;-65
2023/04/03 12:29:25;;;;;;;;;;;18.80;88.60;;;;;;5134080;27;20010;-66
2023/04/03 12:32:03;;;;;;;;;;;18.80;88.60;;;;;;5113726;28;19907;-65
2023/04/03 12:34:47;;;;;;;;;;;18.70;88.60;;;;;;5134336;27;20007;-65
2023/04/03 12:37:12;;;;;;;;;;;18.70;88.90;;;;;;5131269;27;19935;-64
2023/04/03 12:39:44;;;;;;;;;;;18.70;89.00;;;;;;5115879;27;20357;-63
2023/04/03 12:42:17;;;;;;;;;;;18.70;88.90;;;;;;5132682;27;19920;-63
2023/04/03 12:44:43;;;;;;;;;;;18.70;89.30;;;;;;5118216;27;19907;-63
2023/04/03 12:47:22;;;;;;;;;;;18.70;89.60;;;;;;5141472;27;19919;-64
2023/04/03 12:49:49;;;;;;;;;;;18.70;89.50;;;;;;5135591;27;19907;-66
2023/04/03 12:52:32;;;;;;;;;;;18.80;89.50;;;;;;5133282;27;19907;-63
2023/04/03 12:54:59;;;;;;;;;;;18.70;89.40;;;;;;5134276;27;20307;-64
2023/04/03 12:57:26;;;;;;;;;;;18.80;89.30;;;;;;5130486;27;19908;-64
2023/04/03 12:59:51;;;;;;;;;;;18.80;89.40;;;;;;5141182;27;19982;-71
2023/04/03 13:02:23;;;;;;;;;;;18.80;89.20;;;;;;5155765;27;19950;-71
2023/04/03 13:04:49;;;;;;;;;;;18.70;89.50;;;;;;5142026;27;19911;-69
2023/04/03 13:07:34;;;;;;;;;;;18.80;89.50;;;;;;5134903;28;19948;-67
2023/04/03 13:10:05;;;;;;;;;;;18.80;89.50;;;;;;5132378;28;19953;-63
2023/04/03 13:12:31;;;;;;;;;;;18.80;89.60;;;;;;5131349;28;19919;-66
2023/04/03 13:14:58;;;;;;;;;;;18.80;89.50;;;;;;5115530;28;19967;-68
2023/04/03 13:17:24;;;;;;;;;;;18.80;89.40;;;;;;5145984;27;19926;-64
2023/04/03 13:19:51;;;;;;;;;;;18.80;89.30;;;;;;5155387;27;20333;-62
2023/04/03 13:22:19;;;;;;;;;;;18.80;89.20;;;;;;5136874;27;19907;-63
2023/04/03 13:24:46;;;;;;;;;;;18.80;88.80;;;;;;5134631;28;19911;-65
2023/04/03 13:27:12;;;;;;;;;;;18.80;89.00;;;;;;5116463;28;19910;-66
2023/04/03 13:29:39;;;;;;;;;;;18.80;89.40;;;;;;5134865;28;19907;-63
2023/04/03 13:32:04;;;;;;;;;;;18.80;89.10;;;;;;5134630;28;19904;-64
2023/04/03 13:34:37;;;;;;;;;;;18.80;89.10;;;;;;5149357;27;19969;-64
2023/04/03 13:37:04;;;;;;;;;;;18.80;89.00;;;;;;5133117;28;20010;-63
2023/04/03 13:39:34;;;;;;;;;;;18.80;89.30;;;;;;5133873;28;19956;-63
2023/04/03 13:42:03;;;;;;;;;;;18.80;89.20;;;;;;5133524;28;19950;-63
2023/04/03 13:44:32;;;;;;;;;;;18.80;88.60;;;;;;5115201;28;20264;-63
2023/04/03 13:47:00;;;;;;;;;;;18.90;88.20;;;;;;5139991;27;20015;-65
2023/04/03 13:49:28;;;;;;;;;;;18.90;88.40;;;;;;5133141;28;19950;-67
2023/04/03 13:51:54;;;;;;;;;;;18.80;88.40;;;;;;5123590;28;19908;-64
2023/04/03 13:54:22;;;;;;;;;;;18.80;88.00;;;;;;5121873;28;19952;-64
2023/04/03 13:56:52;;;;;;;;;;;18.80;88.20;;;;;;5131861;28;20433;-64
2023/04/03 13:59:18;;;;;;;;;;;18.80;87.80;;;;;;5134450;28;19994;-64
2023/04/03 14:01:45;;;;;;;;;;;18.80;87.90;;;;;;5132178;28;19951;-64
2023/04/03 14:04:12;;;;;;;;;;;18.80;88.20;;;;;;5114615;28;20428;-63
2023/04/03 14:06:38;;;;;;;;;;;18.80;88.20;;;;;;5133705;27;19915;-63
2023/04/03 14:09:03;;;;;;;;;;;18.80;88.00;;;;;;5136691;27;19914;-63
2023/04/03 14:11:29;;;;;;;;;;;18.80;88.00;;;;;;5137843;27;19903;-63
2023/04/03 14:13:57;;;;;;;;;;;18.80;88.70;;;;;;5136949;27;19990;-63
2023/04/03 14:16:25;;;;;;;;;;;18.80;88.90;;;;;;5119715;27;19903;-65
2023/04/03 14:18:51;;;;;;;;;;;18.80;88.70;;;;;;5135840;27;19907;-64
2023/04/03 14:21:17;;;;;;;;;;;18.80;88.90;;;;;;5136654;27;19915;-64